Time;durP1;ratioP1;P1;durP2;ratioP2;P2;SDS_P1;SDS_P2;PMS_P1;PMS_P2;Temp;Humidity;BMP_temperature;BMP_pressure;BME280_temperature;BME280_humidity;BME280_pressure;Samples;Min_cycle;Max_cycle;Signal;HPM_P1;HPM_P2
2022/01/05 00:02:01;;;;;;;24.02;10.68;;;;;;;4.28;100.00;62439.44;5107988;28;20203;-79
2022/01/05 00:04:28;;;;;;;17.60;9.57;;;;;;;4.28;100.00;62438.94;5107007;28;20219;-79
2022/01/05 00:06:55;;;;;;;17.13;10.85;;;;;;;4.24;100.00;62434.81;5107278;28;20219;-79
2022/01/05 00:09:22;;;;;;;18.90;11.13;;;;;;;4.29;100.00;62442.47;5108867;28;20216;-79
2022/01/05 00:11:49;;;;;;;17.85;10.73;;;;;;;4.26;100.00;62434.84;5104024;28;20265;-79
2022/01/05 00:14:18;;;;;;;17.80;11.45;;;;;;;4.16;100.00;62431.63;5107287;28;20294;-79
2022/01/05 00:16:44;;;;;;;16.30;10.07;;;;;;;4.18;100.00;62431.16;5106553;28;20200;-79
2022/01/05 00:19:11;;;;;;;14.52;8.85;;;;;;;4.20;100.00;62433.72;5106288;28;20224;-79
2022/01/05 00:21:40;;;;;;;22.55;10.65;;;;;;;4.41;100.00;62454.81;5103875;28;20195;-79
2022/01/05 00:24:08;;;;;;;13.60;8.98;;;;;;;4.37;100.00;62448.69;5106711;28;20208;-80
2022/01/05 00:26:34;;;;;;;17.88;8.93;;;;;;;4.33;100.00;62446.59;5106110;28;20277;-79
2022/01/05 00:29:02;;;;;;;13.50;9.38;;;;;;;4.28;100.00;62436.91;5105664;28;20234;-79
2022/01/05 00:31:30;;;;;;;16.17;9.77;;;;;;;4.31;100.00;62442.03;5106704;28;20546;-79
2022/01/05 00:33:57;;;;;;;18.10;9.77;;;;;;;4.27;100.00;62438.41;5106788;28;20253;-79
2022/01/05 00:36:24;;;;;;;17.55;9.20;;;;;;;4.32;100.00;62443.03;5105627;28;20192;-79
2022/01/05 00:38:51;;;;;;;13.48;8.90;;;;;;;4.31;100.00;62442.53;5104203;28;20219;-78
2022/01/05 00:41:17;;;;;;;19.02;10.20;;;;;;;4.26;100.00;62439.41;5106465;28;20218;-78
2022/01/05 00:43:44;;;;;;;15.23;9.45;;;;;;;4.29;100.00;62443.00;5107071;28;20222;-79
2022/01/05 00:46:11;;;;;;;16.00;10.10;;;;;;;4.27;100.00;62435.38;5105921;28;20234;-78
2022/01/05 00:48:39;;;;;;;15.65;9.07;;;;;;;4.24;100.00;62439.84;5105892;28;20224;-78
2022/01/05 00:51:08;;;;;;;19.95;9.63;;;;;;;4.26;100.00;62437.38;5107392;28;20203;-78
2022/01/05 00:53:36;;;;;;;16.77;9.45;;;;;;;4.26;100.00;62434.34;5107417;28;20579;-79
2022/01/05 00:56:03;;;;;;;13.75;10.48;;;;;;;4.26;100.00;62432.34;5105606;28;20511;-79
2022/01/05 00:58:30;;;;;;;15.95;9.35;;;;;;;4.34;100.00;62453.19;5106416;28;20224;-79
2022/01/05 01:00:57;;;;;;;15.75;9.68;;;;;;;4.29;100.00;62437.97;5107516;28;20233;-79
2022/01/05 01:03:26;;;;;;;19.95;10.07;;;;;;;4.26;100.00;62442.41;5108289;28;20261;-79
2022/01/05 01:05:55;;;;;;;16.55;9.23;;;;;;;4.22;100.00;62430.22;5104438;28;20437;-79
2022/01/05 01:08:22;;;;;;;16.67;9.18;;;;;;;4.26;100.00;62439.41;5104213;28;20254;-78
2022/01/05 01:10:49;;;;;;;16.40;9.82;;;;;;;4.19;100.00;62432.72;5108817;28;20199;-79
2022/01/05 01:13:17;;;;;;;16.58;9.57;;;;;;;4.18;100.00;62424.13;5111102;28;20456;-79
2022/01/05 01:15:45;;;;;;;17.40;9.20;;;;;;;4.10;100.00;62420.94;5103206;28;20223;-79
2022/01/05 01:18:11;;;;;;;18.48;9.32;;;;;;;4.18;100.00;62431.66;5109210;28;20223;-79
2022/01/05 01:20:38;;;;;;;19.40;11.60;;;;;;;4.21;100.00;62434.25;5110143;28;20253;-78
2022/01/05 01:36:38;;;;;;;23.08;11.07;;;;;;;4.19;100.00;62432.72;4966053;29;20201;-79
2022/01/05 01:39:56;;;;;;;21.27;11.85;;;;;;;4.18;100.00;62429.16;4934151;29;20220;-80
2022/01/05 01:46:44;;;;;;;20.13;11.32;;;;;;;4.14;100.00;62425.03;4958637;29;20224;-79
2022/01/05 02:12:57;;;;;;;;;;;;;;;;;;;;;
2022/01/05 02:45:52;;;;;;;8.88;7.03;;;;;;;3.78;100.00;62384.97;4961510;28;20211;-79
2022/01/05 03:02:38;;;;;;;10.13;6.97;;;;;;;3.85;100.00;62397.72;5065582;28;20204;-79
2022/01/05 03:09:22;;;;;;;13.00;6.78;;;;;;;3.75;100.00;62384.91;4946809;29;20275;-78
2022/01/05 03:21:12;;;;;;;7.60;6.38;;;;;;;3.81;100.00;62390.56;5087615;28;20185;-78
2022/01/05 03:34:35;;;;;;;9.45;6.88;;;;;;;4.00;100.00;62412.66;4857767;29;20438;-78
2022/01/05 03:40:48;;;;;;;14.27;7.40;;;;;;;3.88;100.00;62403.34;4975331;28;20232;-79
2022/01/05 03:50:43;;;;;;;10.48;6.97;;;;;;;3.69;100.00;62380.75;4987832;28;20493;-78
2022/01/05 04:14:08;;;;;;;10.55;6.47;;;;;;;3.51;100.00;62363.28;4972822;28;20280;-79
2022/01/05 04:38:10;;;;;;;8.65;6.72;;;;;;;3.45;100.00;62354.56;4809843;29;20344;-78
2022/01/05 04:40:37;;;;;;;7.72;6.05;;;;;;;3.50;100.00;62364.75;4975701;28;20262;-78
2022/01/05 04:43:04;;;;;;;42.25;23.08;;;;;;;3.55;100.00;62364.34;5002810;28;20505;-77
2022/01/05 04:45:31;;;;;;;10.70;6.88;;;;;;;3.54;100.00;62368.34;5002461;28;20326;-78
2022/01/05 04:47:59;;;;;;;7.50;5.90;;;;;;;3.56;100.00;62367.91;5042600;28;20200;-78
2022/01/05 04:50:26;;;;;;;9.98;5.88;;;;;;;3.58;100.00;62364.41;5085522;28;20199;-78
2022/01/05 04:52:52;;;;;;;10.65;6.95;;;;;;;3.44;100.00;62355.56;5083743;28;20197;-79
2022/01/05 04:55:20;;;;;;;10.35;6.35;;;;;;;3.57;100.00;62363.91;5083737;28;20578;-78
2022/01/05 04:57:46;;;;;;;12.07;8.18;;;;;;;3.59;100.00;62367.97;5085663;28;20196;-78
2022/01/05 05:00:14;;;;;;;11.75;6.88;;;;;;;3.59;100.00;62370.97;5084557;28;20216;-79
2022/01/05 05:02:41;;;;;;;10.43;7.10;;;;;;;3.66;100.00;62373.13;5082236;28;20204;-79
2022/01/05 05:05:10;;;;;;;11.13;6.68;;;;;;;3.67;100.00;62381.72;5087349;28;20410;-79
2022/01/05 05:07:36;;;;;;;10.20;6.90;;;;;;;3.59;100.00;62368.47;5074045;28;20549;-80
2022/01/05 05:10:04;;;;;;;10.65;6.90;;;;;;;3.63;100.00;62372.06;5075157;28;20227;-77
2022/01/05 05:12:31;;;;;;;11.05;7.35;;;;;;;3.61;100.00;62373.03;5082715;28;20252;-78
2022/01/05 05:14:58;;;;;;;10.75;6.22;;;;;;;3.56;100.00;62365.38;5087626;28;20325;-78
2022/01/05 05:17:25;;;;;;;15.57;6.70;;;;;;;3.61;100.00;62370.53;5074616;28;20197;-76
2022/01/05 05:19:52;;;;;;;11.82;7.75;;;;;;;3.62;100.00;62374.06;5073566;28;20258;-77
2022/01/05 05:22:20;;;;;;;13.23;7.00;;;;;;;3.57;100.00;62368.94;5067643;28;20494;-77
2022/01/05 05:24:47;;;;;;;9.98;6.97;;;;;;;3.62;100.00;62369.03;5065455;28;20222;-79
2022/01/05 05:27:13;;;;;;;12.48;6.57;;;;;;;3.57;100.00;62368.41;5078361;28;20229;-77
2022/01/05 05:29:41;;;;;;;13.15;6.68;;;;;;;3.58;100.00;62372.47;5006599;28;20226;-78
2022/01/05 05:32:08;;;;;;;7.43;6.03;;;;;;;3.60;100.00;62368.97;5006542;28;20535;-78
2022/01/05 05:34:35;;;;;;;7.75;6.43;;;;;;;3.53;100.00;62359.78;5004052;28;20449;-78
2022/01/05 05:37:03;;;;;;;11.35;7.22;;;;;;;3.65;100.00;62374.63;5005715;28;20226;-78
2022/01/05 05:39:31;;;;;;;11.02;7.07;;;;;;;3.61;100.00;62373.03;5004758;28;20283;-79
2022/01/05 05:41:58;;;;;;;12.10;7.57;;;;;;;3.58;100.00;62364.91;5005357;28;20199;-79
2022/01/05 05:44:24;;;;;;;9.90;6.78;;;;;;;3.57;100.00;62371.44;5004694;28;20227;-79
2022/01/05 05:46:51;;;;;;;10.65;7.03;;;;;;;3.54;100.00;62363.84;5005233;28;20315;-80
2022/01/05 05:49:18;;;;;;;8.38;6.07;;;;;;;3.47;100.00;62359.16;5004083;28;20231;-78
2022/01/05 05:51:45;;;;;;;12.50;7.28;;;;;;;3.46;100.00;62355.63;5002434;28;20204;-79
2022/01/05 05:54:12;;;;;;;11.82;7.30;;;;;;;3.43;100.00;62357.56;5005214;28;20227;-79
2022/01/05 05:56:40;;;;;;;12.15;7.18;;;;;;;3.39;100.00;62347.91;5005211;28;20551;-78
2022/01/05 05:59:07;;;;;;;12.98;7.03;;;;;;;3.33;100.00;62349.78;5003403;28;20353;-79
2022/01/05 06:01:34;;;;;;;13.00;8.82;;;;;;;3.35;100.00;62346.28;5004201;28;20242;-80
2022/01/05 06:04:01;;;;;;;8.90;7.20;;;;;;;3.41;100.00;62349.97;5006620;28;20238;-78
2022/01/05 06:06:30;;;;;;;12.32;9.23;;;;;;;3.38;100.00;62349.91;5009209;28;20258;-80
2022/01/05 06:08:57;;;;;;;12.52;7.47;;;;;;;3.33;100.00;62349.28;5007285;28;20566;-79
2022/01/05 06:11:25;;;;;;;12.18;7.65;;;;;;;3.32;100.00;62343.75;5008713;28;20510;-78
2022/01/05 06:13:54;;;;;;;12.18;7.72;;;;;;;3.36;100.00;62347.34;5009265;28;20230;-79
2022/01/05 06:16:22;;;;;;;7.18;6.43;;;;;;;3.34;100.00;62345.78;4996973;28;20199;-79
2022/01/05 06:18:48;;;;;;;11.77;6.65;;;;;;;3.24;100.00;62335.00;5000100;28;20359;-79
2022/01/05 06:21:15;;;;;;;9.95;6.72;;;;;;;3.17;100.00;62328.31;5010135;28;20195;-79
2022/01/05 06:23:42;;;;;;;10.80;6.38;;;;;;;3.10;100.00;62323.63;5008980;28;20266;-79
2022/01/05 06:26:09;;;;;;;14.90;7.25;;;;;;;3.16;100.00;62334.31;5011523;28;20297;-80
2022/01/05 06:28:36;;;;;;;7.15;5.90;;;;;;;3.16;100.00;62321.72;5011257;28;20515;-80
2022/01/05 06:31:04;;;;;;;8.20;6.57;;;;;;;3.16;100.00;62326.75;5010270;28;20230;-79
2022/01/05 06:33:31;;;;;;;15.05;6.75;;;;;;;3.18;100.00;62329.34;5001529;28;20224;-80
2022/01/05 06:35:58;;;;;;;12.48;6.45;;;;;;;3.22;100.00;62333.47;5002397;28;20219;-79
2022/01/05 06:38:25;;;;;;;11.25;7.53;;;;;;;3.10;100.00;62321.13;5010871;28;20234;-79
2022/01/05 06:40:52;;;;;;;10.10;7.20;;;;;;;3.41;100.00;62347.97;5010008;28;20217;-78
2022/01/05 06:43:19;;;;;;;8.35;6.57;;;;;;;3.45;100.00;62354.06;5010180;28;20274;-79
2022/01/05 06:45:46;;;;;;;10.80;7.05;;;;;;;3.45;100.00;62354.56;5009999;28;20508;-79
2022/01/05 06:48:14;;;;;;;12.00;7.72;;;;;;;3.51;100.00;62357.72;5009315;28;20616;-79
2022/01/05 06:50:40;;;;;;;10.48;7.22;;;;;;;3.55;100.00;62369.38;5009014;28;20238;-80
2022/01/05 06:53:07;;;;;;;11.35;7.93;;;;;;;3.65;100.00;62376.63;5008457;28;20254;-81
2022/01/05 06:55:34;;;;;;;9.43;7.40;;;;;;;3.80;100.00;62389.53;5006339;28;20250;-79
2022/01/05 06:58:01;;;;;;;10.27;8.30;;;;;;;3.93;100.00;62403.44;5006234;28;20200;-77
2022/01/05 07:00:28;;;;;;;11.07;7.00;;;;;;;3.96;100.00;62403.47;5006597;28;20212;-77
2022/01/05 07:02:55;;;;;;;11.05;7.15;;;;;;;4.09;100.00;62419.88;5006832;28;20214;-78
2022/01/05 07:05:23;;;;;;;13.73;10.02;;;;;;;4.20;100.00;62431.22;5004187;28;20258;-76
2022/01/05 07:07:50;;;;;;;11.70;8.60;;;;;;;4.33;100.00;62444.59;5005712;28;20297;-78
2022/01/05 07:10:17;;;;;;;12.18;7.97;;;;;;;4.40;100.00;62451.28;4995911;28;20219;-78
2022/01/05 07:12:44;;;;;;;16.25;10.30;;;;;;;4.43;100.00;62457.41;5002851;28;20203;-78
2022/01/05 07:15:12;;;;;;;19.08;10.75;;;;;;;4.63;100.00;62472.44;5004117;28;20269;-78
2022/01/05 07:17:39;;;;;;;17.08;10.80;;;;;;;5.00;100.00;62510.53;5007396;28;20207;-77
2022/01/05 07:20:08;;;;;;;13.85;8.55;;;;;;;5.54;100.00;62571.19;5004722;28;20594;-77
2022/01/05 07:22:36;;;;;;;17.50;8.55;;;;;;;5.98;100.00;62613.00;5003131;28;20199;-77
2022/01/05 07:25:03;;;;;;;10.82;8.77;;;;;;;6.37;100.00;62656.22;5005305;28;20270;-77
2022/01/05 07:27:31;;;;;;;18.05;9.38;;;;;;;6.60;100.00;62674.91;5001989;28;20231;-79
2022/01/05 07:29:57;;;;;;;18.52;9.65;;;;;;;6.71;100.00;62693.31;5006419;28;20298;-77
2022/01/05 07:32:24;;;;;;;10.68;8.88;;;;;;;6.82;100.00;62705.19;5008749;28;20270;-78
2022/01/05 07:34:51;;;;;;;15.15;7.32;;;;;;;6.73;99.09;62695.88;5005599;28;20566;-79
2022/01/05 07:37:18;;;;;;;14.40;8.68;;;;;;;6.72;99.21;62689.81;5006923;28;20207;-79
2022/01/05 07:39:47;;;;;;;10.90;7.30;;;;;;;6.64;99.05;62681.03;5004822;28;20227;-79
2022/01/05 07:42:14;;;;;;;11.05;7.95;;;;;;;6.59;99.33;62673.84;5007060;28;20239;-79
2022/01/05 07:44:41;;;;;;;13.43;8.38;;;;;;;6.62;99.47;62682.03;5000213;28;20216;-79
2022/01/05 07:47:08;;;;;;;13.55;8.68;;;;;;;6.54;100.00;62673.75;5006508;28;20455;-79
2022/01/05 07:49:37;;;;;;;13.95;9.07;;;;;;;6.52;100.00;62671.69;5005090;28;20268;-79
2022/01/05 07:52:04;;;;;;;11.65;7.85;;;;;;;6.52;100.00;62663.59;5005185;28;20203;-79
2022/01/05 07:54:32;;;;;;;13.43;7.72;;;;;;;6.52;100.00;62668.66;5007082;28;20219;-78
2022/01/05 07:57:00;;;;;;;10.85;7.60;;;;;;;6.63;100.00;62680.50;5007347;28;20202;-79
2022/01/05 07:59:27;;;;;;;9.27;7.78;;;;;;;6.63;98.62;62678.00;5008221;28;20409;-78
2022/01/05 08:01:54;;;;;;;8.60;7.03;;;;;;;6.72;98.11;62691.81;5007500;28;20199;-78
2022/01/05 08:04:21;;;;;;;11.95;7.50;;;;;;;6.65;97.43;62682.59;5007317;28;20219;-78
2022/01/05 08:06:47;;;;;;;11.50;7.88;;;;;;;6.74;98.27;62694.41;5001878;28;20303;-78
2022/01/05 08:09:14;;;;;;;10.40;7.88;;;;;;;6.80;96.32;62697.53;4997535;28;20227;-77
2022/01/05 08:11:41;;;;;;;10.38;7.18;;;;;;;6.86;95.54;62706.25;5005557;28;20230;-78
2022/01/05 08:14:09;;;;;;;11.48;7.63;;;;;;;6.85;94.74;62708.25;5005930;28;20219;-79
2022/01/05 08:16:36;;;;;;;11.38;7.15;;;;;;;6.91;95.27;62709.41;5003684;28;20199;-78
2022/01/05 08:19:03;;;;;;;12.60;6.60;;;;;;;6.85;94.06;62702.69;5002010;28;20230;-78
2022/01/05 08:21:29;;;;;;;10.05;7.22;;;;;;;6.86;94.28;62706.78;5006675;28;20215;-78
2022/01/05 08:23:56;;;;;;;10.75;6.85;;;;;;;6.90;92.48;62708.34;5003952;28;20227;-79
2022/01/05 08:26:24;;;;;;;15.30;7.85;;;;;;;6.95;93.25;62707.94;5004992;28;20211;-78
2022/01/05 08:28:51;;;;;;;12.05;7.10;;;;;;;7.02;93.17;62717.72;5004425;28;20243;-78
2022/01/05 08:31:19;;;;;;;8.90;7.15;;;;;;;7.11;92.92;62731.53;5003999;28;20211;-78
2022/01/05 08:33:46;;;;;;;8.77;6.60;;;;;;;7.07;91.06;62727.94;5004905;28;20539;-77
2022/01/05 08:36:12;;;;;;;10.35;6.55;;;;;;;7.12;92.29;62733.09;5005836;28;20242;-78
2022/01/05 08:38:39;;;;;;;9.90;7.63;;;;;;;7.22;91.15;62740.34;5005331;28;20422;-78
2022/01/05 08:41:12;;;;;;;11.48;7.10;;;;;;;7.35;90.11;62756.81;5006009;28;20207;-78
2022/01/05 08:43:44;;;;;;;9.07;6.40;;;;;;;7.40;90.05;62758.94;5009354;28;20214;-78
2022/01/05 08:46:12;;;;;;;9.65;6.82;;;;;;;7.39;89.12;62757.88;5009249;28;20200;-78
2022/01/05 08:48:53;;;;;;;8.90;7.32;;;;;;;7.41;89.73;62760.47;5009681;28;20258;-79
2022/01/05 08:51:23;;;;;;;10.48;7.10;;;;;;;7.55;89.19;62774.91;5010445;28;20192;-79
2022/01/05 08:54:04;;;;;;;10.75;6.68;;;;;;;7.45;87.63;62762.06;5009503;28;20452;-77
2022/01/05 08:56:42;;;;;;;14.07;8.73;;;;;;;7.33;88.13;62751.69;5011354;28;20480;-79
2022/01/05 08:59:14;;;;;;;11.13;7.05;;;;;;;7.39;88.55;62758.41;5011596;28;20222;-78
2022/01/05 09:01:47;;;;;;;7.60;6.80;;;;;;;7.57;88.14;62781.53;5005580;28;20519;-78
2022/01/05 09:04:22;;;;;;;15.55;8.05;;;;;;;7.61;88.06;62783.63;5011170;28;20215;-79
2022/01/05 09:06:49;;;;;;;18.65;8.70;;;;;;;7.66;87.70;62785.75;5005884;28;20215;-78
2022/01/05 09:09:17;;;;;;;9.82;7.78;;;;;;;7.64;85.69;62789.28;5005122;28;20216;-79
2022/01/05 09:11:44;;;;;;;11.35;7.80;;;;;;;7.74;86.50;62796.56;5004711;28;20195;-77
2022/01/05 09:14:11;;;;;;;12.68;8.50;;;;;;;7.73;84.58;62795.53;5005910;28;20598;-78
2022/01/05 09:16:37;;;;;;;15.30;9.25;;;;;;;7.80;84.69;62805.78;5006476;28;20210;-78
2022/01/05 09:19:04;;;;;;;15.05;9.07;;;;;;;7.87;83.94;62810.47;5003777;28;20614;-77
2022/01/05 09:21:33;;;;;;;19.40;9.35;;;;;;;7.87;83.91;62812.50;5006443;28;20210;-78
2022/01/05 09:24:00;;;;;;;14.98;8.32;;;;;;;8.08;83.98;62829.13;5001676;28;20219;-78
2022/01/05 09:26:26;;;;;;;12.45;7.68;;;;;;;8.13;84.09;62834.28;5005594;28;20530;-77
2022/01/05 09:28:53;;;;;;;11.43;7.53;;;;;;;8.19;82.93;62843.03;5006697;28;20239;-77
2022/01/05 09:31:20;;;;;;;11.18;8.13;;;;;;;8.29;83.15;62850.31;5005832;28;20242;-77
2022/01/05 09:33:47;;;;;;;10.82;7.32;;;;;;;8.44;81.59;62866.31;5003658;28;20262;-78
2022/01/05 09:36:18;;;;;;;10.73;7.60;;;;;;;8.37;81.84;62863.66;5005675;28;20239;-78
2022/01/05 09:44:16;;;;;;;7.70;6.65;;;;;;;8.79;78.68;62902.47;5005655;28;20230;-78
2022/01/05 09:46:55;;;;;;;11.82;6.78;;;;;;;8.54;77.80;62876.13;5005539;28;20238;-78
2022/01/05 09:49:28;;;;;;;12.10;7.28;;;;;;;8.49;79.23;62873.50;5004513;28;20295;-77
2022/01/05 09:51:59;;;;;;;9.43;7.05;;;;;;;8.72;78.98;62895.25;5003818;28;20226;-77
2022/01/05 09:54:28;;;;;;;14.05;7.32;;;;;;;8.98;78.67;62922.13;5005467;28;20524;-78
2022/01/05 09:56:55;;;;;;;9.52;7.05;;;;;;;9.05;76.62;62931.91;5005475;28;20203;-80
2022/01/05 09:59:22;;;;;;;10.13;7.97;;;;;;;8.98;74.87;62924.13;5003399;28;20262;-78
2022/01/05 10:01:49;;;;;;;14.65;7.07;;;;;;;9.18;75.79;62947.38;5005493;28;20497;-78
2022/01/05 10:04:16;;;;;;;8.48;7.15;;;;;;;9.23;75.18;62945.41;5005544;28;20219;-79
2022/01/05 10:06:43;;;;;;;13.63;7.80;;;;;;;9.36;74.68;62960.88;5005053;28;20203;-78
2022/01/05 10:09:10;;;;;;;11.05;7.50;;;;;;;9.52;73.79;62979.44;5003319;28;20231;-77
2022/01/05 10:11:38;;;;;;;11.48;7.68;;;;;;;9.65;73.31;62990.34;5004885;28;20227;-78
2022/01/05 10:14:06;;;;;;;9.15;7.85;;;;;;;9.69;73.01;62997.53;5005971;28;20219;-79
2022/01/05 10:16:33;;;;;;;9.55;8.15;;;;;;;9.74;71.70;62999.66;5004377;28;20211;-79
2022/01/05 10:19:00;;;;;;;12.65;7.65;;;;;;;9.78;70.85;63008.88;5005280;28;20282;-79
2022/01/05 10:21:34;;;;;;;11.68;8.48;;;;;;;9.64;70.32;62991.84;5005702;28;20204;-78
2022/01/05 10:24:01;;;;;;;15.55;8.98;;;;;;;9.81;71.23;63004.88;5005643;28;20222;-79
2022/01/05 10:26:30;;;;;;;13.20;7.82;;;;;;;9.91;70.45;63017.22;5003769;28;20223;-79
2022/01/05 10:29:01;;;;;;;9.63;7.32;;;;;;;9.86;69.41;63015.13;5005804;28;20307;-78
2022/01/05 10:31:30;;;;;;;11.38;7.25;;;;;;;9.94;69.40;63022.91;5006100;28;20207;-78
2022/01/05 10:33:57;;;;;;;10.20;7.10;;;;;;;10.15;69.02;63042.59;5005576;28;20219;-79
2022/01/05 10:36:24;;;;;;;12.20;6.50;;;;;;;10.20;69.18;63052.88;5005119;28;20249;-78
2022/01/05 10:38:53;;;;;;;11.43;7.05;;;;;;;10.18;68.99;63053.34;5005369;28;20275;-79
2022/01/05 10:41:21;;;;;;;8.63;6.75;;;;;;;10.23;67.87;63052.91;5005631;28;20291;-78
2022/01/05 10:44:10;;;;;;;9.40;6.28;;;;;;;10.13;67.32;63043.06;5002054;28;20504;-78
2022/01/05 10:46:39;;;;;;;6.22;5.63;;;;;;;10.33;67.96;63060.72;5003796;28;20235;-79
2022/01/05 10:49:06;;;;;;;8.40;5.68;;;;;;;10.38;66.13;63068.44;5005739;28;20239;-79
2022/01/05 10:51:35;;;;;;;7.38;6.22;;;;;;;10.39;67.48;63069.44;5009220;28;20272;-78
2022/01/05 10:54:14;;;;;;;6.97;6.28;;;;;;;10.42;67.60;63070.53;5008339;28;20231;-79
2022/01/05 10:56:41;;;;;;;7.53;5.80;;;;;;;10.56;67.71;63087.03;5009878;28;20214;-78
2022/01/05 10:59:10;;;;;;;12.00;6.43;;;;;;;10.53;66.97;63083.94;5009245;28;20258;-79
2022/01/05 11:01:38;;;;;;;10.60;6.55;;;;;;;10.55;66.80;63085.50;5008133;28;20403;-77
2022/01/05 11:04:19;;;;;;;9.38;6.15;;;;;;;10.67;66.77;63095.38;5004644;28;20238;-78
2022/01/05 11:06:58;;;;;;;9.80;5.82;;;;;;;10.76;66.99;63107.75;5009380;28;20199;-78
2022/01/05 11:09:26;;;;;;;10.52;6.63;;;;;;;10.73;65.60;63104.66;5010443;28;20250;-78
2022/01/05 11:11:53;;;;;;;11.40;7.05;;;;;;;10.66;66.34;63091.78;5009113;28;20242;-78
2022/01/05 11:14:30;;;;;;;10.93;6.85;;;;;;;10.70;67.10;63101.53;5013041;28;20222;-78
2022/01/05 11:16:59;;;;;;;8.98;6.35;;;;;;;10.73;65.70;63107.22;5013302;28;20210;-78
2022/01/05 11:19:28;;;;;;;9.80;6.57;;;;;;;10.49;66.19;63079.81;5009341;28;20226;-79
2022/01/05 11:22:04;;;;;;;7.15;6.25;;;;;;;10.57;66.51;63087.56;5009068;28;20200;-78
2022/01/05 11:24:34;;;;;;;8.63;6.10;;;;;;;10.72;65.82;63105.63;5007477;28;20304;-80
2022/01/05 11:27:02;;;;;;;6.90;6.15;;;;;;;10.75;65.86;63104.16;5008081;28;20247;-79
2022/01/05 11:29:31;;;;;;;5.93;5.32;;;;;;;10.80;64.64;63111.91;5006273;28;20238;-78
2022/01/05 11:31:58;;;;;;;6.15;5.50;;;;;;;10.67;65.65;63100.47;5007627;28;20206;-78
2022/01/05 11:34:29;;;;;;;9.35;5.70;;;;;;;10.67;65.51;63098.44;5005719;28;20262;-79
2022/01/05 11:36:57;;;;;;;7.63;6.47;;;;;;;10.82;66.14;63119.06;5005192;28;20204;-79
2022/01/05 11:39:24;;;;;;;8.57;5.95;;;;;;;10.99;65.04;63131.56;5007204;28;20223;-78
2022/01/05 11:41:54;;;;;;;8.73;5.63;;;;;;;11.06;64.25;63135.75;5010112;28;20200;-78
2022/01/05 11:44:21;;;;;;;7.03;5.65;;;;;;;11.09;64.79;63141.41;5008974;28;20250;-79
2022/01/05 11:46:50;;;;;;;6.68;5.90;;;;;;;11.05;65.09;63137.78;5006961;28;20222;-79
2022/01/05 11:49:25;;;;;;;6.82;6.10;;;;;;;11.17;65.72;63144.59;5010256;28;20271;-78
2022/01/05 11:51:55;;;;;;;9.73;6.38;;;;;;;11.25;64.72;63158.50;5010871;28;20215;-79
2022/01/05 11:54:24;;;;;;;10.25;5.97;;;;;;;11.29;64.30;63157.00;5007098;28;20251;-79
2022/01/05 11:56:53;;;;;;;12.85;7.95;;;;;;;11.28;62.86;63164.16;5007725;28;20242;-79
2022/01/05 11:59:22;;;;;;;11.45;6.28;;;;;;;11.29;62.92;63162.13;5007045;28;20239;-79
2022/01/05 12:02:02;;;;;;;8.25;5.95;;;;;;;11.12;62.71;63144.50;5008440;28;20457;-78
2022/01/05 12:04:30;;;;;;;11.57;6.15;;;;;;;11.03;63.09;63135.19;5005021;28;20548;-80
2022/01/05 12:07:07;;;;;;;9.07;6.25;;;;;;;11.09;63.34;63141.41;5009651;28;20204;-79
2022/01/05 12:09:37;;;;;;;7.55;6.22;;;;;;;11.18;63.86;63150.72;5007486;28;20250;-79
2022/01/05 12:12:27;;;;;;;8.20;6.07;;;;;;;11.11;63.39;63141.44;5002399;28;20543;-79
2022/01/05 12:14:54;;;;;;;10.60;6.28;;;;;;;11.00;65.04;63134.63;5007830;28;20223;-79
2022/01/05 12:17:23;;;;;;;10.13;6.25;;;;;;;11.05;65.37;63132.16;5009895;28;20195;-79
2022/01/05 12:20:10;;;;;;;7.55;5.82;;;;;;;11.06;65.20;63138.31;5008497;28;20219;-78
2022/01/05 12:22:37;;;;;;;6.90;6.30;;;;;;;11.06;65.82;63136.25;5006353;28;20309;-79
2022/01/05 12:25:23;;;;;;;6.80;6.03;;;;;;;11.08;66.08;63138.34;5007564;28;20231;-79
2022/01/05 12:28:06;;;;;;;6.72;6.07;;;;;;;11.23;64.78;63158.47;5007880;28;20200;-80
2022/01/05 12:30:43;;;;;;;9.63;6.93;;;;;;;11.18;64.28;63153.78;5006640;28;20219;-82
2022/01/05 12:33:21;;;;;;;9.23;6.70;;;;;;;11.20;65.19;63155.84;4997167;28;20550;-81
2022/01/05 12:35:57;;;;;;;8.95;5.47;;;;;;;11.24;64.43;63154.91;5008724;28;20234;-80
2022/01/05 12:38:57;;;;;;;6.88;6.18;;;;;;;11.16;65.04;63148.66;5008062;28;20504;-81
2022/01/05 12:41:35;;;;;;;7.00;5.50;;;;;;;11.13;64.73;63146.06;5006663;28;20191;-81
2022/01/05 12:44:25;;;;;;;7.57;6.22;;;;;;;11.17;64.23;63152.75;5010157;28;20231;-81
2022/01/05 12:46:54;;;;;;;10.00;7.13;;;;;;;11.30;63.29;63158.06;5008020;28;20205;-80
2022/01/05 12:49:26;;;;;;;12.25;6.65;;;;;;;11.42;63.55;63175.59;5007637;28;20243;-81
2022/01/05 12:52:01;;;;;;;12.60;6.65;;;;;;;11.47;62.86;63181.28;5007867;28;20439;-80
2022/01/05 12:54:31;;;;;;;9.68;6.82;;;;;;;11.34;63.55;63165.25;5008528;28;20218;-80
2022/01/05 12:57:00;;;;;;;8.45;6.55;;;;;;;11.38;62.93;63168.88;5006554;28;20207;-80
2022/01/05 12:59:30;;;;;;;9.77;7.32;;;;;;;11.31;63.77;63164.72;5008578;28;20215;-80
2022/01/05 13:02:01;;;;;;;7.88;6.95;;;;;;;11.36;62.37;63172.44;5008644;28;20231;-81
2022/01/05 13:04:30;;;;;;;9.75;7.43;;;;;;;11.39;63.05;63170.44;5007998;28;20528;-80
2022/01/05 13:06:59;;;;;;;10.50;7.90;;;;;;;11.31;63.34;63164.72;5008566;28;20271;-80
2022/01/05 13:09:29;;;;;;;10.18;6.53;;;;;;;11.36;63.12;63167.34;5008008;28;20258;-81
2022/01/05 13:11:59;;;;;;;8.32;6.50;;;;;;;11.46;62.98;63177.16;5011194;28;20292;-80
2022/01/05 13:14:30;;;;;;;21.05;8.52;;;;;;;11.48;62.83;63181.78;5009930;28;20219;-80
2022/01/05 13:16:59;;;;;;;10.43;8.05;;;;;;;11.44;62.75;63175.13;5007777;28;20222;-81
2022/01/05 13:19:30;;;;;;;13.20;7.82;;;;;;;11.38;63.29;63168.88;5008355;28;20536;-81
2022/01/05 13:21:59;;;;;;;8.02;7.22;;;;;;;11.42;63.24;63178.13;5007012;28;20207;-81
2022/01/05 13:24:45;;;;;;;18.77;7.53;;;;;;;11.41;63.45;63177.09;5007765;28;20227;-80
2022/01/05 13:27:14;;;;;;;13.80;7.75;;;;;;;11.45;62.56;63178.69;5005200;28;20253;-82
2022/01/05 13:29:41;;;;;;;11.25;7.70;;;;;;;11.38;63.28;63166.88;5009904;28;20280;-80
2022/01/05 13:32:10;;;;;;;12.10;8.13;;;;;;;11.36;64.03;63164.78;5007352;28;20195;-81
2022/01/05 13:34:41;;;;;;;9.07;6.00;;;;;;;11.34;63.92;63164.75;5009540;28;20219;-80
2022/01/05 13:37:09;;;;;;;10.20;7.00;;;;;;;11.25;64.16;63158.50;5006747;28;20203;-81
2022/01/05 13:39:38;;;;;;;8.55;6.40;;;;;;;11.22;64.19;63154.88;5008755;28;20219;-82
2022/01/05 13:42:06;;;;;;;11.57;6.53;;;;;;;11.12;64.78;63142.47;5008284;28;20195;-81
2022/01/05 13:44:33;;;;;;;6.85;6.13;;;;;;;11.07;65.19;63141.88;5008940;28;20219;-83
2022/01/05 13:47:03;;;;;;;6.05;5.38;;;;;;;10.94;64.85;63125.88;5008697;28;20195;-80
2022/01/05 13:49:29;;;;;;;10.52;5.93;;;;;;;10.89;65.36;63118.66;5005243;28;20235;-80
2022/01/05 13:52:13;;;;;;;6.75;5.97;;;;;;;10.69;66.31;63102.53;5008713;28;20211;-81
2022/01/05 13:54:42;;;;;;;7.60;6.18;;;;;;;10.46;67.29;63077.22;5011435;28;20223;-81
2022/01/05 13:57:26;;;;;;;7.88;6.32;;;;;;;10.34;67.67;63064.28;5008295;28;20242;-81
2022/01/05 13:59:59;;;;;;;12.82;7.82;;;;;;;10.27;68.29;63057.56;5006317;28;20223;-81
2022/01/05 14:02:27;;;;;;;13.27;8.10;;;;;;;10.10;69.07;63039.44;5014332;28;20191;-80
2022/01/05 14:04:55;;;;;;;14.85;6.82;;;;;;;9.95;69.78;63023.91;5011680;28;20551;-79
2022/01/05 14:07:25;;;;;;;9.98;5.63;;;;;;;9.57;70.87;62982.59;5011439;28;20222;-80
2022/01/05 14:10:10;;;;;;;10.00;5.97;;;;;;;9.61;71.62;62989.25;5010041;28;20318;-81
2022/01/05 14:12:40;;;;;;;9.10;5.72;;;;;;;9.54;71.77;62987.13;5009262;28;20201;-81
2022/01/05 14:15:09;;;;;;;10.50;6.55;;;;;;;9.42;72.65;62971.66;5006510;28;20227;-81
2022/01/05 14:17:37;;;;;;;6.53;5.05;;;;;;;9.24;73.38;62951.00;5007210;28;20392;-80
2022/01/05 14:20:19;;;;;;;14.50;9.30;;;;;;;9.18;73.88;62939.75;5005337;28;20226;-80
2022/01/05 14:22:59;;;;;;;12.18;7.10;;;;;;;9.12;74.31;62939.13;5008737;28;20207;-79
2022/01/05 14:25:33;;;;;;;8.32;5.65;;;;;;;9.06;75.01;62930.38;5003756;28;20368;-79
2022/01/05 14:28:10;;;;;;;6.35;4.78;;;;;;;8.95;74.59;62918.50;4999635;28;20202;-79
2022/01/05 14:30:37;;;;;;;7.40;5.80;;;;;;;8.95;75.16;62921.03;5009287;28;20289;-79
2022/01/05 14:33:05;;;;;;;6.30;5.53;;;;;;;8.88;75.07;62908.72;5008731;28;20274;-78